sensor_id;sensor_type;location;lat;lon;timestamp;temperature;humidity
12060;DHT22;6091;51.432;6.880;2024-01-10T00:02:08;19.90;31.40
12060;DHT22;6091;51.432;6.880;2024-01-10T00:04:36;19.90;31.40
12060;DHT22;6091;51.432;6.880;2024-01-10T00:07:03;19.80;31.40
12060;DHT22;6091;51.432;6.880;2024-01-10T00:09:32;19.80;31.40
12060;DHT22;6091;51.432;6.880;2024-01-10T00:11:59;19.80;31.70
12060;DHT22;6091;51.432;6.880;2024-01-10T00:14:26;19.80;31.40
12060;DHT22;6091;51.432;6.880;2024-01-10T00:16:54;19.80;31.40
12060;DHT22;6091;51.432;6.880;2024-01-10T00:19:21;19.80;31.50
12060;DHT22;6091;51.432;6.880;2024-01-10T00:21:48;19.70;31.40
12060;DHT22;6091;51.432;6.880;2024-01-10T00:24:15;19.70;31.40
12060;DHT22;6091;51.432;6.880;2024-01-10T00:26:42;19.70;31.40
12060;DHT22;6091;51.432;6.880;2024-01-10T00:29:10;19.70;31.50
12060;DHT22;6091;51.432;6.880;2024-01-10T00:31:37;19.70;31.50
12060;DHT22;6091;51.432;6.880;2024-01-10T00:34:05;19.70;31.50
12060;DHT22;6091;51.432;6.880;2024-01-10T00:36:32;19.70;31.60
12060;DHT22;6091;51.432;6.880;2024-01-10T00:38:59;19.70;31.60
12060;DHT22;6091;51.432;6.880;2024-01-10T00:41:26;19.70;31.60
12060;DHT22;6091;51.432;6.880;2024-01-10T00:43:53;19.70;31.60
12060;DHT22;6091;51.432;6.880;2024-01-10T00:46:20;19.60;31.60
12060;DHT22;6091;51.432;6.880;2024-01-10T00:48:47;19.60;31.60
12060;DHT22;6091;51.432;6.880;2024-01-10T00:51:15;19.60;31.60
12060;DHT22;6091;51.432;6.880;2024-01-10T00:53:42;19.60;31.60
12060;DHT22;6091;51.432;6.880;2024-01-10T00:56:09;19.60;31.60
12060;DHT22;6091;51.432;6.880;2024-01-10T00:58:36;19.60;31.70
12060;DHT22;6091;51.432;6.880;2024-01-10T01:01:04;19.60;31.70
12060;DHT22;6091;51.432;6.880;2024-01-10T01:03:31;19.60;31.70
12060;DHT22;6091;51.432;6.880;2024-01-10T01:05:58;19.60;31.70
12060;DHT22;6091;51.432;6.880;2024-01-10T01:08:26;19.50;31.60
12060;DHT22;6091;51.432;6.880;2024-01-10T01:10:53;19.50;31.60
12060;DHT22;6091;51.432;6.880;2024-01-10T01:13:21;19.50;31.60
12060;DHT22;6091;51.432;6.880;2024-01-10T01:15:48;19.50;31.60
12060;DHT22;6091;51.432;6.880;2024-01-10T01:18:16;19.50;31.70
12060;DHT22;6091;51.432;6.880;2024-01-10T01:20:43;19.50;31.70
12060;DHT22;6091;51.432;6.880;2024-01-10T01:23:10;19.50;31.70
12060;DHT22;6091;51.432;6.880;2024-01-10T01:25:37;19.50;31.70
12060;DHT22;6091;51.432;6.880;2024-01-10T01:28:05;19.50;31.70
12060;DHT22;6091;51.432;6.880;2024-01-10T01:30:32;19.50;31.80
12060;DHT22;6091;51.432;6.880;2024-01-10T01:33:00;19.40;31.70
12060;DHT22;6091;51.432;6.880;2024-01-10T01:35:30;19.40;31.70
12060;DHT22;6091;51.432;6.880;2024-01-10T01:37:57;19.40;31.80
12060;DHT22;6091;51.432;6.880;2024-01-10T01:40:25;19.40;31.70
12060;DHT22;6091;51.432;6.880;2024-01-10T01:42:52;19.40;31.70
12060;DHT22;6091;51.432;6.880;2024-01-10T01:45:21;19.40;31.70
12060;DHT22;6091;51.432;6.880;2024-01-10T01:47:49;19.40;31.80
12060;DHT22;6091;51.432;6.880;2024-01-10T01:50:23;19.30;31.70
12060;DHT22;6091;51.432;6.880;2024-01-10T01:52:50;19.40;31.90
12060;DHT22;6091;51.432;6.880;2024-01-10T01:55:17;19.40;31.80
12060;DHT22;6091;51.432;6.880;2024-01-10T01:57:44;19.30;31.70
12060;DHT22;6091;51.432;6.880;2024-01-10T02:00:12;19.30;31.80
12060;DHT22;6091;51.432;6.880;2024-01-10T02:02:40;19.30;31.80
12060;DHT22;6091;51.432;6.880;2024-01-10T02:05:08;19.30;31.80
12060;DHT22;6091;51.432;6.880;2024-01-10T02:10:56;19.30;32.00
12060;DHT22;6091;51.432;6.880;2024-01-10T02:13:23;19.30;32.00
12060;DHT22;6091;51.432;6.880;2024-01-10T02:15:51;19.30;31.80
12060;DHT22;6091;51.432;6.880;2024-01-10T02:18:18;19.20;31.80
12060;DHT22;6091;51.432;6.880;2024-01-10T02:20:46;19.20;31.90
12060;DHT22;6091;51.432;6.880;2024-01-10T02:23:13;19.20;31.90
12060;DHT22;6091;51.432;6.880;2024-01-10T02:25:42;19.20;31.90
12060;DHT22;6091;51.432;6.880;2024-01-10T02:28:10;19.20;31.90
12060;DHT22;6091;51.432;6.880;2024-01-10T02:30:37;19.20;31.90
12060;DHT22;6091;51.432;6.880;2024-01-10T02:33:04;19.20;31.90
12060;DHT22;6091;51.432;6.880;2024-01-10T02:35:33;19.20;31.90
12060;DHT22;6091;51.432;6.880;2024-01-10T02:38:01;19.20;32.00
12060;DHT22;6091;51.432;6.880;2024-01-10T02:40:29;19.10;31.90
12060;DHT22;6091;51.432;6.880;2024-01-10T02:42:56;19.10;31.90
12060;DHT22;6091;51.432;6.880;2024-01-10T02:45:24;19.10;31.90
12060;DHT22;6091;51.432;6.880;2024-01-10T02:47:51;19.10;31.90
12060;DHT22;6091;51.432;6.880;2024-01-10T02:50:18;19.10;31.90
12060;DHT22;6091;51.432;6.880;2024-01-10T02:52:46;19.10;32.00
12060;DHT22;6091;51.432;6.880;2024-01-10T02:55:13;19.10;32.00
12060;DHT22;6091;51.432;6.880;2024-01-10T02:57:40;19.10;32.00
12060;DHT22;6091;51.432;6.880;2024-01-10T03:00:07;19.00;31.90
12060;DHT22;6091;51.432;6.880;2024-01-10T03:02:35;19.00;31.90
12060;DHT22;6091;51.432;6.880;2024-01-10T03:05:02;19.00;32.00
12060;DHT22;6091;51.432;6.880;2024-01-10T03:07:30;19.00;32.00
12060;DHT22;6091;51.432;6.880;2024-01-10T03:09:57;19.00;32.00
12060;DHT22;6091;51.432;6.880;2024-01-10T03:12:24;19.00;32.00
12060;DHT22;6091;51.432;6.880;2024-01-10T03:14:51;19.00;32.00
12060;DHT22;6091;51.432;6.880;2024-01-10T03:17:18;19.00;32.10
12060;DHT22;6091;51.432;6.880;2024-01-10T03:19:46;19.00;32.10
12060;DHT22;6091;51.432;6.880;2024-01-10T03:22:13;19.00;32.10
12060;DHT22;6091;51.432;6.880;2024-01-10T03:24:40;19.00;32.10
12060;DHT22;6091;51.432;6.880;2024-01-10T03:27:07;19.00;32.10
12060;DHT22;6091;51.432;6.880;2024-01-10T03:29:35;18.90;32.10
12060;DHT22;6091;51.432;6.880;2024-01-10T03:32:02;18.90;32.10
12060;DHT22;6091;51.432;6.880;2024-01-10T03:34:29;18.90;32.10
12060;DHT22;6091;51.432;6.880;2024-01-10T03:36:56;18.90;32.10
12060;DHT22;6091;51.432;6.880;2024-01-10T03:39:26;18.90;32.20
12060;DHT22;6091;51.432;6.880;2024-01-10T03:41:57;18.90;32.20
12060;DHT22;6091;51.432;6.880;2024-01-10T03:44:26;18.90;32.10
12060;DHT22;6091;51.432;6.880;2024-01-10T03:46:54;18.90;32.20
12060;DHT22;6091;51.432;6.880;2024-01-10T03:49:22;18.80;32.10
12060;DHT22;6091;51.432;6.880;2024-01-10T03:51:50;18.90;32.20
12060;DHT22;6091;51.432;6.880;2024-01-10T03:54:17;18.80;32.10
12060;DHT22;6091;51.432;6.880;2024-01-10T03:56:44;18.80;32.10
12060;DHT22;6091;51.432;6.880;2024-01-10T03:59:11;18.80;32.10
12060;DHT22;6091;51.432;6.880;2024-01-10T04:01:38;18.80;32.80
12060;DHT22;6091;51.432;6.880;2024-01-10T04:04:06;18.80;32.20
12060;DHT22;6091;51.432;6.880;2024-01-10T04:06:33;18.80;32.20
12060;DHT22;6091;51.432;6.880;2024-01-10T04:09:01;18.80;32.20
12060;DHT22;6091;51.432;6.880;2024-01-10T04:11:29;18.80;32.20
12060;DHT22;6091;51.432;6.880;2024-01-10T04:13:56;18.70;32.20
12060;DHT22;6091;51.432;6.880;2024-01-10T04:16:23;18.80;32.20
12060;DHT22;6091;51.432;6.880;2024-01-10T04:18:52;18.70;32.20
12060;DHT22;6091;51.432;6.880;2024-01-10T04:21:19;18.70;32.20
12060;DHT22;6091;51.432;6.880;2024-01-10T04:23:47;18.70;32.20
12060;DHT22;6091;51.432;6.880;2024-01-10T04:26:14;18.70;32.20
12060;DHT22;6091;51.432;6.880;2024-01-10T04:28:41;17.60;31.30
12060;DHT22;6091;51.432;6.880;2024-01-10T04:31:08;18.70;32.20
12060;DHT22;6091;51.432;6.880;2024-01-10T04:33:35;18.70;32.30
12060;DHT22;6091;51.432;6.880;2024-01-10T04:36:03;18.70;32.30
12060;DHT22;6091;51.432;6.880;2024-01-10T04:38:30;18.60;32.20
12060;DHT22;6091;51.432;6.880;2024-01-10T04:40:58;18.60;32.20
12060;DHT22;6091;51.432;6.880;2024-01-10T04:43:25;18.60;32.20
12060;DHT22;6091;51.432;6.880;2024-01-10T04:45:53;18.60;32.20
12060;DHT22;6091;51.432;6.880;2024-01-10T04:48:20;18.60;32.20
12060;DHT22;6091;51.432;6.880;2024-01-10T04:50:47;18.60;32.20
12060;DHT22;6091;51.432;6.880;2024-01-10T04:53:14;18.60;32.20
12060;DHT22;6091;51.432;6.880;2024-01-10T04:55:41;18.60;32.30
12060;DHT22;6091;51.432;6.880;2024-01-10T04:58:09;18.60;32.30
12060;DHT22;6091;51.432;6.880;2024-01-10T05:00:36;18.60;32.30
12060;DHT22;6091;51.432;6.880;2024-01-10T05:03:03;18.60;32.30
12060;DHT22;6091;51.432;6.880;2024-01-10T05:05:30;18.50;32.20
12060;DHT22;6091;51.432;6.880;2024-01-10T05:07:57;18.50;32.30
12060;DHT22;6091;51.432;6.880;2024-01-10T05:10:25;18.50;32.30
12060;DHT22;6091;51.432;6.880;2024-01-10T05:12:52;18.50;32.30
12060;DHT22;6091;51.432;6.880;2024-01-10T05:15:19;18.50;32.90
12060;DHT22;6091;51.432;6.880;2024-01-10T05:17:46;18.50;32.30
12060;DHT22;6091;51.432;6.880;2024-01-10T05:20:13;18.50;32.30
12060;DHT22;6091;51.432;6.880;2024-01-10T05:22:42;18.50;32.30
12060;DHT22;6091;51.432;6.880;2024-01-10T05:25:09;18.50;32.30
12060;DHT22;6091;51.432;6.880;2024-01-10T05:27:36;18.50;32.30
12060;DHT22;6091;51.432;6.880;2024-01-10T05:30:07;18.50;32.30
12060;DHT22;6091;51.432;6.880;2024-01-10T05:32:35;18.50;32.40
12060;DHT22;6091;51.432;6.880;2024-01-10T05:35:04;18.50;32.40
12060;DHT22;6091;51.432;6.880;2024-01-10T05:37:32;18.40;32.30
12060;DHT22;6091;51.432;6.880;2024-01-10T05:39:59;18.40;32.30
12060;DHT22;6091;51.432;6.880;2024-01-10T05:42:27;18.50;32.40
12060;DHT22;6091;51.432;6.880;2024-01-10T05:44:54;18.40;32.30
12060;DHT22;6091;51.432;6.880;2024-01-10T05:47:21;18.40;32.40
12060;DHT22;6091;51.432;6.880;2024-01-10T05:49:48;18.40;32.40
12060;DHT22;6091;51.432;6.880;2024-01-10T05:52:15;18.40;32.40
12060;DHT22;6091;51.432;6.880;2024-01-10T05:54:45;18.40;32.40
12060;DHT22;6091;51.432;6.880;2024-01-10T05:57:12;18.40;32.40
12060;DHT22;6091;51.432;6.880;2024-01-10T05:59:39;18.40;32.40
12060;DHT22;6091;51.432;6.880;2024-01-10T06:02:07;18.40;32.40
12060;DHT22;6091;51.432;6.880;2024-01-10T06:04:34;18.40;32.40
12060;DHT22;6091;51.432;6.880;2024-01-10T06:07:01;18.40;32.50
12060;DHT22;6091;51.432;6.880;2024-01-10T06:09:28;18.40;32.60
12060;DHT22;6091;51.432;6.880;2024-01-10T06:11:55;18.40;33.00
12060;DHT22;6091;51.432;6.880;2024-01-10T06:14:23;18.50;33.40
12060;DHT22;6091;51.432;6.880;2024-01-10T06:16:50;18.50;33.70
12060;DHT22;6091;51.432;6.880;2024-01-10T06:19:20;18.70;34.00
12060;DHT22;6091;51.432;6.880;2024-01-10T06:21:49;19.00;34.30
12060;DHT22;6091;51.432;6.880;2024-01-10T06:24:16;19.20;34.20
12060;DHT22;6091;51.432;6.880;2024-01-10T06:26:43;19.50;34.20
12060;DHT22;6091;51.432;6.880;2024-01-10T06:29:10;19.80;34.10
12060;DHT22;6091;51.432;6.880;2024-01-10T06:31:38;20.10;33.90
12060;DHT22;6091;51.432;6.880;2024-01-10T06:34:05;20.40;33.80
12060;DHT22;6091;51.432;6.880;2024-01-10T06:36:32;20.70;33.60
12060;DHT22;6091;51.432;6.880;2024-01-10T06:38:59;20.90;33.40
12060;DHT22;6091;51.432;6.880;2024-01-10T06:41:27;21.20;33.30
12060;DHT22;6091;51.432;6.880;2024-01-10T06:43:55;21.40;33.20
12060;DHT22;6091;51.432;6.880;2024-01-10T06:46:22;21.60;33.00
12060;DHT22;6091;51.432;6.880;2024-01-10T06:48:49;21.80;32.80
12060;DHT22;6091;51.432;6.880;2024-01-10T06:51:17;22.00;32.70
12060;DHT22;6091;51.432;6.880;2024-01-10T06:53:44;22.20;32.70
12060;DHT22;6091;51.432;6.880;2024-01-10T06:56:11;22.40;32.60
12060;DHT22;6091;51.432;6.880;2024-01-10T06:58:39;22.60;32.50
12060;DHT22;6091;51.432;6.880;2024-01-10T07:01:13;22.70;32.40
12060;DHT22;6091;51.432;6.880;2024-01-10T07:03:41;22.90;32.00
12060;DHT22;6091;51.432;6.880;2024-01-10T07:06:09;23.00;32.20
12060;DHT22;6091;51.432;6.880;2024-01-10T07:08:36;23.20;32.20
12060;DHT22;6091;51.432;6.880;2024-01-10T07:11:03;23.20;31.90
12060;DHT22;6091;51.432;6.880;2024-01-10T07:13:30;23.40;32.00
12060;DHT22;6091;51.432;6.880;2024-01-10T07:15:58;23.50;31.90
12060;DHT22;6091;51.432;6.880;2024-01-10T07:18:29;23.60;31.70
12060;DHT22;6091;51.432;6.880;2024-01-10T07:20:57;23.70;31.60
12060;DHT22;6091;51.432;6.880;2024-01-10T07:23:25;23.80;31.60
12060;DHT22;6091;51.432;6.880;2024-01-10T07:25:53;24.00;31.50
12060;DHT22;6091;51.432;6.880;2024-01-10T07:28:20;23.90;31.60
12060;DHT22;6091;51.432;6.880;2024-01-10T07:30:47;24.00;31.40
12060;DHT22;6091;51.432;6.880;2024-01-10T07:33:15;24.20;31.40
12060;DHT22;6091;51.432;6.880;2024-01-10T07:35:42;24.20;31.20
12060;DHT22;6091;51.432;6.880;2024-01-10T07:38:10;24.20;31.10
12060;DHT22;6091;51.432;6.880;2024-01-10T07:40:37;24.30;31.20
12060;DHT22;6091;51.432;6.880;2024-01-10T07:43:04;24.30;31.00
12060;DHT22;6091;51.432;6.880;2024-01-10T07:45:31;24.40;30.80
12060;DHT22;6091;51.432;6.880;2024-01-10T07:48:00;24.40;30.90
12060;DHT22;6091;51.432;6.880;2024-01-10T07:50:27;24.40;30.80
12060;DHT22;6091;51.432;6.880;2024-01-10T07:52:55;24.50;30.80
12060;DHT22;6091;51.432;6.880;2024-01-10T07:55:23;24.60;30.40
12060;DHT22;6091;51.432;6.880;2024-01-10T07:57:50;24.50;30.70
12060;DHT22;6091;51.432;6.880;2024-01-10T08:00:18;24.60;30.60
12060;DHT22;6091;51.432;6.880;2024-01-10T08:02:47;24.70;30.60
12060;DHT22;6091;51.432;6.880;2024-01-10T08:05:16;24.70;30.40
12060;DHT22;6091;51.432;6.880;2024-01-10T08:07:44;24.80;30.30
12060;DHT22;6091;51.432;6.880;2024-01-10T08:10:11;24.80;30.30
12060;DHT22;6091;51.432;6.880;2024-01-10T08:12:40;24.80;30.30
12060;DHT22;6091;51.432;6.880;2024-01-10T08:15:11;24.80;30.20
12060;DHT22;6091;51.432;6.880;2024-01-10T08:17:38;24.90;30.30
12060;DHT22;6091;51.432;6.880;2024-01-10T08:20:07;24.90;30.20
12060;DHT22;6091;51.432;6.880;2024-01-10T08:22:39;24.90;30.10
12060;DHT22;6091;51.432;6.880;2024-01-10T08:25:07;24.90;30.10
12060;DHT22;6091;51.432;6.880;2024-01-10T08:27:34;24.90;30.70
12060;DHT22;6091;51.432;6.880;2024-01-10T08:30:01;24.90;30.00
12060;DHT22;6091;51.432;6.880;2024-01-10T08:32:32;24.90;30.20
12060;DHT22;6091;51.432;6.880;2024-01-10T08:35:00;24.90;30.10
12060;DHT22;6091;51.432;6.880;2024-01-10T08:37:27;24.90;29.90
12060;DHT22;6091;51.432;6.880;2024-01-10T08:39:55;24.90;30.10
12060;DHT22;6091;51.432;6.880;2024-01-10T08:42:22;24.90;30.10
12060;DHT22;6091;51.432;6.880;2024-01-10T08:44:49;25.00;30.00
12060;DHT22;6091;51.432;6.880;2024-01-10T08:47:16;25.00;30.00
12060;DHT22;6091;51.432;6.880;2024-01-10T08:49:43;25.00;30.00
12060;DHT22;6091;51.432;6.880;2024-01-10T08:52:10;25.00;30.00
12060;DHT22;6091;51.432;6.880;2024-01-10T08:54:38;25.00;30.00
12060;DHT22;6091;51.432;6.880;2024-01-10T08:57:05;25.10;30.10
12060;DHT22;6091;51.432;6.880;2024-01-10T08:59:33;25.10;30.20
12060;DHT22;6091;51.432;6.880;2024-01-10T09:02:01;25.20;30.20
12060;DHT22;6091;51.432;6.880;2024-01-10T09:04:28;25.20;30.20
12060;DHT22;6091;51.432;6.880;2024-01-10T09:06:55;25.30;30.20
12060;DHT22;6091;51.432;6.880;2024-01-10T09:09:23;25.30;30.30
12060;DHT22;6091;51.432;6.880;2024-01-10T09:11:50;25.40;30.40
12060;DHT22;6091;51.432;6.880;2024-01-10T09:14:18;25.40;30.40
12060;DHT22;6091;51.432;6.880;2024-01-10T09:16:45;25.50;30.30
12060;DHT22;6091;51.432;6.880;2024-01-10T09:19:12;25.50;30.40
12060;DHT22;6091;51.432;6.880;2024-01-10T09:21:42;25.60;30.50
12060;DHT22;6091;51.432;6.880;2024-01-10T09:24:09;25.60;30.40
12060;DHT22;6091;51.432;6.880;2024-01-10T09:26:54;25.70;30.50
12060;DHT22;6091;51.432;6.880;2024-01-10T09:29:21;25.70;30.50
12060;DHT22;6091;51.432;6.880;2024-01-10T09:31:49;25.70;30.40
12060;DHT22;6091;51.432;6.880;2024-01-10T09:34:17;25.80;30.40
12060;DHT22;6091;51.432;6.880;2024-01-10T09:36:44;25.90;30.50
12060;DHT22;6091;51.432;6.880;2024-01-10T09:39:12;25.90;30.60
12060;DHT22;6091;51.432;6.880;2024-01-10T09:41:47;26.00;30.60
12060;DHT22;6091;51.432;6.880;2024-01-10T09:44:15;26.00;30.40
12060;DHT22;6091;51.432;6.880;2024-01-10T09:46:54;26.00;30.50
12060;DHT22;6091;51.432;6.880;2024-01-10T09:49:22;26.10;30.30
12060;DHT22;6091;51.432;6.880;2024-01-10T09:51:58;26.10;30.40
12060;DHT22;6091;51.432;6.880;2024-01-10T09:54:31;26.10;30.30
12060;DHT22;6091;51.432;6.880;2024-01-10T09:57:02;26.20;30.40
12060;DHT22;6091;51.432;6.880;2024-01-10T09:59:31;26.20;30.40
12060;DHT22;6091;51.432;6.880;2024-01-10T10:01:58;26.30;30.40
12060;DHT22;6091;51.432;6.880;2024-01-10T10:04:27;26.30;30.40
12060;DHT22;6091;51.432;6.880;2024-01-10T10:06:59;26.30;30.30
12060;DHT22;6091;51.432;6.880;2024-01-10T10:09:30;26.30;30.20
12060;DHT22;6091;51.432;6.880;2024-01-10T10:11:59;26.30;30.30
12060;DHT22;6091;51.432;6.880;2024-01-10T10:14:28;26.40;30.90
12060;DHT22;6091;51.432;6.880;2024-01-10T10:17:16;26.40;30.30
12060;DHT22;6091;51.432;6.880;2024-01-10T10:19:44;26.50;30.00
12060;DHT22;6091;51.432;6.880;2024-01-10T10:22:12;26.40;30.20
12060;DHT22;6091;51.432;6.880;2024-01-10T10:24:41;26.50;30.20
12060;DHT22;6091;51.432;6.880;2024-01-10T10:27:12;26.50;30.20
12060;DHT22;6091;51.432;6.880;2024-01-10T10:29:40;26.60;30.30
12060;DHT22;6091;51.432;6.880;2024-01-10T10:32:07;26.60;30.20
12060;DHT22;6091;51.432;6.880;2024-01-10T10:34:35;26.70;30.30
12060;DHT22;6091;51.432;6.880;2024-01-10T10:37:03;26.60;30.00
12060;DHT22;6091;51.432;6.880;2024-01-10T10:39:30;26.60;30.10
12060;DHT22;6091;51.432;6.880;2024-01-10T10:42:00;26.60;29.90
12060;DHT22;6091;51.432;6.880;2024-01-10T10:44:29;26.70;29.90
12060;DHT22;6091;51.432;6.880;2024-01-10T10:47:04;26.70;29.90
12060;DHT22;6091;51.432;6.880;2024-01-10T10:49:51;26.80;29.60
12060;DHT22;6091;51.432;6.880;2024-01-10T10:52:21;26.80;29.70
12060;DHT22;6091;51.432;6.880;2024-01-10T10:54:50;26.80;29.70
12060;DHT22;6091;51.432;6.880;2024-01-10T10:57:23;26.90;29.70
12060;DHT22;6091;51.432;6.880;2024-01-10T10:59:55;27.00;29.70
12060;DHT22;6091;51.432;6.880;2024-01-10T11:02:24;27.00;29.60
12060;DHT22;6091;51.432;6.880;2024-01-10T11:04:58;27.10;29.70
12060;DHT22;6091;51.432;6.880;2024-01-10T11:07:29;27.10;29.60
12060;DHT22;6091;51.432;6.880;2024-01-10T11:09:57;27.10;29.40
12060;DHT22;6091;51.432;6.880;2024-01-10T11:12:32;27.20;29.60
12060;DHT22;6091;51.432;6.880;2024-01-10T11:24:00;27.50;29.30
12060;DHT22;6091;51.432;6.880;2024-01-10T11:26:29;27.60;29.10
12060;DHT22;6091;51.432;6.880;2024-01-10T11:29:00;27.70;29.30
12060;DHT22;6091;51.432;6.880;2024-01-10T11:31:30;27.80;29.20
12060;DHT22;6091;51.432;6.880;2024-01-10T11:34:01;27.90;29.10
12060;DHT22;6091;51.432;6.880;2024-01-10T11:36:31;27.90;29.10
12060;DHT22;6091;51.432;6.880;2024-01-10T11:39:05;28.00;29.10
12060;DHT22;6091;51.432;6.880;2024-01-10T11:41:35;28.00;28.90
12060;DHT22;6091;51.432;6.880;2024-01-10T11:46:43;28.10;28.80
12060;DHT22;6091;51.432;6.880;2024-01-10T11:49:18;28.20;28.90
12060;DHT22;6091;51.432;6.880;2024-01-10T11:51:49;28.20;29.00
12060;DHT22;6091;51.432;6.880;2024-01-10T11:54:42;28.30;28.90
12060;DHT22;6091;51.432;6.880;2024-01-10T11:57:20;28.40;28.70
12060;DHT22;6091;51.432;6.880;2024-01-10T11:59:56;28.40;28.90
12060;DHT22;6091;51.432;6.880;2024-01-10T12:02:26;28.40;28.90
12060;DHT22;6091;51.432;6.880;2024-01-10T12:04:55;28.50;28.70
12060;DHT22;6091;51.432;6.880;2024-01-10T12:07:23;28.50;28.90
12060;DHT22;6091;51.432;6.880;2024-01-10T12:09:54;28.50;29.30
12060;DHT22;6091;51.432;6.880;2024-01-10T12:12:22;28.60;28.80
12060;DHT22;6091;51.432;6.880;2024-01-10T12:14:50;28.60;28.80
12060;DHT22;6091;51.432;6.880;2024-01-10T12:17:18;28.70;28.80
12060;DHT22;6091;51.432;6.880;2024-01-10T12:19:46;28.80;28.70
12060;DHT22;6091;51.432;6.880;2024-01-10T12:22:19;28.80;28.70
12060;DHT22;6091;51.432;6.880;2024-01-10T12:24:50;28.80;28.60
12060;DHT22;6091;51.432;6.880;2024-01-10T12:27:20;28.80;28.50
12060;DHT22;6091;51.432;6.880;2024-01-10T12:29:51;28.90;28.50
12060;DHT22;6091;51.432;6.880;2024-01-10T12:32:21;28.90;28.40
12060;DHT22;6091;51.432;6.880;2024-01-10T12:35:04;28.80;28.10
12060;DHT22;6091;51.432;6.880;2024-01-10T12:37:34;28.90;27.60
12060;DHT22;6091;51.432;6.880;2024-01-10T12:40:02;28.80;27.90
12060;DHT22;6091;51.432;6.880;2024-01-10T12:42:37;28.80;27.80
12060;DHT22;6091;51.432;6.880;2024-01-10T12:45:04;28.70;27.70
12060;DHT22;6091;51.432;6.880;2024-01-10T12:47:34;28.70;27.70
12060;DHT22;6091;51.432;6.880;2024-01-10T12:50:03;28.60;27.60
12060;DHT22;6091;51.432;6.880;2024-01-10T12:52:31;28.50;27.70
12060;DHT22;6091;51.432;6.880;2024-01-10T12:54:58;28.50;27.70
12060;DHT22;6091;51.432;6.880;2024-01-10T12:57:27;28.40;27.70
12060;DHT22;6091;51.432;6.880;2024-01-10T12:59:54;28.40;27.70
12060;DHT22;6091;51.432;6.880;2024-01-10T13:02:21;28.30;27.70
12060;DHT22;6091;51.432;6.880;2024-01-10T13:04:48;28.20;27.70
12060;DHT22;6091;51.432;6.880;2024-01-10T13:07:19;28.00;27.60
12060;DHT22;6091;51.432;6.880;2024-01-10T13:09:46;28.10;27.70
12060;DHT22;6091;51.432;6.880;2024-01-10T13:12:13;28.00;27.70
12060;DHT22;6091;51.432;6.880;2024-01-10T13:14:41;28.00;28.20
12060;DHT22;6091;51.432;6.880;2024-01-10T13:17:09;27.90;27.70
12060;DHT22;6091;51.432;6.880;2024-01-10T13:19:37;27.90;27.80
12060;DHT22;6091;51.432;6.880;2024-01-10T13:22:04;27.90;27.80
12060;DHT22;6091;51.432;6.880;2024-01-10T13:24:36;27.90;27.80
12060;DHT22;6091;51.432;6.880;2024-01-10T13:27:03;27.90;27.80
12060;DHT22;6091;51.432;6.880;2024-01-10T13:29:31;27.90;27.90
12060;DHT22;6091;51.432;6.880;2024-01-10T13:31:58;27.80;27.80
12060;DHT22;6091;51.432;6.880;2024-01-10T13:34:27;27.80;27.80
12060;DHT22;6091;51.432;6.880;2024-01-10T13:36:54;27.80;27.80
12060;DHT22;6091;51.432;6.880;2024-01-10T13:39:22;27.80;27.80
12060;DHT22;6091;51.432;6.880;2024-01-10T13:41:50;27.70;27.80
12060;DHT22;6091;51.432;6.880;2024-01-10T13:44:18;27.70;27.80
12060;DHT22;6091;51.432;6.880;2024-01-10T13:46:47;27.60;27.70
12060;DHT22;6091;51.432;6.880;2024-01-10T13:49:18;27.60;27.80
12060;DHT22;6091;51.432;6.880;2024-01-10T13:51:47;27.60;28.20
12060;DHT22;6091;51.432;6.880;2024-01-10T13:54:14;27.60;27.80
12060;DHT22;6091;51.432;6.880;2024-01-10T13:56:42;27.50;27.80
12060;DHT22;6091;51.432;6.880;2024-01-10T13:59:11;27.50;27.80
12060;DHT22;6091;51.432;6.880;2024-01-10T14:01:38;27.40;27.80
12060;DHT22;6091;51.432;6.880;2024-01-10T14:04:06;27.40;27.80
12060;DHT22;6091;51.432;6.880;2024-01-10T14:06:34;27.40;27.80
12060;DHT22;6091;51.432;6.880;2024-01-10T14:09:01;27.30;27.80
12060;DHT22;6091;51.432;6.880;2024-01-10T14:11:29;27.30;27.90
12060;DHT22;6091;51.432;6.880;2024-01-10T14:13:57;27.30;27.90
12060;DHT22;6091;51.432;6.880;2024-01-10T14:16:25;27.20;27.80
12060;DHT22;6091;51.432;6.880;2024-01-10T14:18:52;27.20;27.80
12060;DHT22;6091;51.432;6.880;2024-01-10T14:21:20;27.20;27.90
12060;DHT22;6091;51.432;6.880;2024-01-10T14:23:47;27.20;27.90
12060;DHT22;6091;51.432;6.880;2024-01-10T14:26:15;27.20;27.90
12060;DHT22;6091;51.432;6.880;2024-01-10T14:28:43;27.10;27.90
12060;DHT22;6091;51.432;6.880;2024-01-10T14:31:11;27.10;27.90
12060;DHT22;6091;51.432;6.880;2024-01-10T14:33:55;27.10;27.90
12060;DHT22;6091;51.432;6.880;2024-01-10T14:36:23;27.10;27.90
12060;DHT22;6091;51.432;6.880;2024-01-10T14:38:51;27.00;27.90
12060;DHT22;6091;51.432;6.880;2024-01-10T14:41:19;27.10;28.00
12060;DHT22;6091;51.432;6.880;2024-01-10T14:43:46;27.00;27.90
12060;DHT22;6091;51.432;6.880;2024-01-10T14:46:14;27.00;27.90
12060;DHT22;6091;51.432;6.880;2024-01-10T14:48:41;27.00;27.90
12060;DHT22;6091;51.432;6.880;2024-01-10T14:51:08;27.00;28.00
12060;DHT22;6091;51.432;6.880;2024-01-10T14:53:35;27.00;28.00
12060;DHT22;6091;51.432;6.880;2024-01-10T14:56:03;27.00;28.00
12060;DHT22;6091;51.432;6.880;2024-01-10T14:58:32;27.00;28.00
12060;DHT22;6091;51.432;6.880;2024-01-10T15:00:59;27.00;28.00
12060;DHT22;6091;51.432;6.880;2024-01-10T15:03:27;27.00;28.00
12060;DHT22;6091;51.432;6.880;2024-01-10T15:05:55;26.90;28.00
12060;DHT22;6091;51.432;6.880;2024-01-10T15:08:22;26.70;27.90
12060;DHT22;6091;51.432;6.880;2024-01-10T15:10:50;27.00;28.00
12060;DHT22;6091;51.432;6.880;2024-01-10T15:13:17;26.90;28.00
12060;DHT22;6091;51.432;6.880;2024-01-10T15:15:46;26.90;28.00
12060;DHT22;6091;51.432;6.880;2024-01-10T15:18:13;27.00;28.00
12060;DHT22;6091;51.432;6.880;2024-01-10T15:20:42;26.90;28.00
12060;DHT22;6091;51.432;6.880;2024-01-10T15:23:13;26.90;28.00
12060;DHT22;6091;51.432;6.880;2024-01-10T15:25:40;26.90;28.00
12060;DHT22;6091;51.432;6.880;2024-01-10T15:28:08;26.90;28.00
12060;DHT22;6091;51.432;6.880;2024-01-10T15:30:36;26.90;28.00
12060;DHT22;6091;51.432;6.880;2024-01-10T15:33:13;26.90;28.00
12060;DHT22;6091;51.432;6.880;2024-01-10T15:35:41;26.90;28.00
12060;DHT22;6091;51.432;6.880;2024-01-10T15:38:09;26.90;28.00
12060;DHT22;6091;51.432;6.880;2024-01-10T15:40:37;26.90;28.00
12060;DHT22;6091;51.432;6.880;2024-01-10T15:43:07;26.90;28.00
12060;DHT22;6091;51.432;6.880;2024-01-10T15:45:36;26.90;28.00
12060;DHT22;6091;51.432;6.880;2024-01-10T15:48:04;26.90;28.00
12060;DHT22;6091;51.432;6.880;2024-01-10T15:50:34;26.90;28.10
12060;DHT22;6091;51.432;6.880;2024-01-10T15:53:01;26.90;28.10
12060;DHT22;6091;51.432;6.880;2024-01-10T15:55:29;26.80;28.00
12060;DHT22;6091;51.432;6.880;2024-01-10T15:57:59;26.80;28.00
12060;DHT22;6091;51.432;6.880;2024-01-10T16:00:26;26.90;28.10
12060;DHT22;6091;51.432;6.880;2024-01-10T16:02:54;26.80;28.00
12060;DHT22;6091;51.432;6.880;2024-01-10T16:05:23;26.80;28.10
12060;DHT22;6091;51.432;6.880;2024-01-10T16:07:51;26.80;28.00